createdAt,value
2022-10-04T00:02:52.674Z,1.70
2022-10-04T00:07:58.762Z,1.92
2022-10-04T00:13:04.122Z,1.90
2022-10-04T00:18:11.322Z,2.45
2022-10-04T00:23:24.991Z,2.80
2022-10-04T00:28:26.566Z,1.73
2022-10-04T00:33:52.802Z,1.93
2022-10-04T00:39:09.458Z,2.00
2022-10-04T00:44:21.630Z,2.17
2022-10-04T00:49:29.481Z,2.53
2022-10-04T00:54:41.150Z,1.80
2022-10-04T00:59:52.528Z,2.72
2022-10-04T01:05:04.022Z,2.17
2022-10-04T01:10:13.220Z,1.80
2022-10-04T01:15:43.877Z,2.00
2022-10-04T01:20:50.299Z,1.73
2022-10-04T01:25:52.608Z,1.90
2022-10-04T01:30:54.967Z,1.92
2022-10-04T01:35:57.253Z,2.47
2022-10-04T01:41:02.199Z,2.10
2022-10-04T01:46:09.979Z,2.38
2022-10-04T01:51:33.600Z,2.35
2022-10-04T01:56:47.855Z,2.35
2022-10-04T02:01:55.392Z,2.08
2022-10-04T02:06:59.984Z,2.55
2022-10-04T02:12:01.925Z,2.28
2022-10-04T02:17:10.339Z,2.20
2022-10-04T02:22:11.783Z,2.72
2022-10-04T02:27:14.417Z,2.55
2022-10-04T02:37:38.422Z,2.40
2022-10-04T02:42:49.058Z,2.47
2022-10-04T02:48:04.645Z,2.65
2022-10-04T02:53:23.137Z,2.45
2022-10-04T02:58:26.539Z,2.53
2022-10-04T03:03:37.484Z,2.58
2022-10-04T03:08:50.153Z,2.80
2022-10-04T03:13:55.507Z,2.70
2022-10-04T03:18:57.953Z,2.25
2022-10-04T03:24:01.269Z,2.08
2022-10-04T03:29:07.287Z,2.47
2022-10-04T03:34:36.668Z,2.10
2022-10-04T03:39:41.851Z,2.15
2022-10-04T03:44:45.896Z,2.88
2022-10-04T03:49:50.984Z,2.60
2022-10-04T03:54:57.690Z,2.00
2022-10-04T04:00:00.718Z,2.63
2022-10-04T04:05:02.067Z,2.65
2022-10-04T04:10:20.658Z,2.60
2022-10-04T04:15:23.340Z,2.80
2022-10-04T04:25:39.392Z,2.88
2022-10-04T04:30:46.763Z,3.22
2022-10-04T04:35:48.349Z,2.97
2022-10-04T04:40:55.460Z,3.35
2022-10-04T04:46:15.322Z,3.65
2022-10-04T04:51:23.674Z,3.10
2022-10-04T04:56:28.454Z,2.90
2022-10-04T05:01:45.853Z,3.00
2022-10-04T05:07:09.907Z,3.40
2022-10-04T05:12:17.570Z,3.30
2022-10-04T05:17:25.721Z,2.90
2022-10-04T05:22:29.519Z,3.40
2022-10-04T05:27:36.937Z,3.03
2022-10-04T05:32:53.807Z,3.42
2022-10-04T05:38:16.422Z,4.05
2022-10-04T05:43:27.088Z,3.60
2022-10-04T05:48:28.488Z,3.60
2022-10-04T05:53:32.897Z,3.95
2022-10-04T05:59:01.962Z,4.88
2022-10-04T06:04:17.559Z,3.33
2022-10-04T06:09:47.961Z,3.63
2022-10-04T06:15:14.592Z,2.97
2022-10-04T06:20:47.543Z,3.25
2022-10-04T06:31:18.567Z,2.70
2022-10-04T06:36:57.062Z,3.15
2022-10-04T06:42:17.087Z,2.75
2022-10-04T06:47:48.833Z,3.47
2022-10-04T06:53:11.431Z,4.65
2022-10-04T06:58:40.341Z,3.05
2022-10-04T07:03:57.195Z,2.13
2022-10-04T07:09:03.141Z,2.20
2022-10-04T07:14:09.880Z,2.10
2022-10-04T07:19:20.054Z,2.20
2022-10-04T07:24:32.568Z,2.28
2022-10-04T07:29:42.250Z,3.15
2022-10-04T07:34:52.002Z,3.08
2022-10-04T07:40:04.326Z,3.17
2022-10-04T07:45:21.436Z,2.95
2022-10-04T07:50:24.593Z,2.70
2022-10-04T07:55:40.614Z,3.22
2022-10-04T08:01:00.549Z,2.90
2022-10-04T08:06:10.347Z,2.58
2022-10-04T08:11:31.369Z,2.25
2022-10-04T08:16:43.318Z,2.28
2022-10-04T08:22:09.526Z,2.72
2022-10-04T08:27:34.932Z,2.30
2022-10-04T08:32:40.454Z,2.40
2022-10-04T08:38:14.552Z,2.50
2022-10-04T08:43:44.240Z,3.20
2022-10-04T08:49:13.280Z,2.13
2022-10-04T08:54:42.502Z,2.58
2022-10-04T09:00:20.999Z,2.45
2022-10-04T09:05:46.571Z,2.20
2022-10-04T09:10:47.860Z,2.20
2022-10-04T09:16:00.257Z,2.30
2022-10-04T09:28:55.236Z,3.10
2022-10-04T09:34:37.292Z,2.35
2022-10-04T09:40:01.171Z,2.47
2022-10-04T09:45:06.377Z,2.30
2022-10-04T09:50:30.030Z,2.45
2022-10-04T09:55:53.063Z,2.78
2022-10-04T10:01:29.580Z,2.15
2022-10-04T10:07:10.154Z,1.95
2022-10-04T10:13:02.953Z,2.38
2022-10-04T10:18:31.500Z,1.83
2022-10-04T10:24:22.929Z,2.40
2022-10-04T14:09:02.491Z,1.27
2022-10-04T14:14:23.039Z,1.40
2022-10-04T14:19:30.812Z,1.20
2022-10-04T14:24:36.053Z,1.30
2022-10-04T14:29:53.591Z,1.67
2022-10-04T14:35:02.710Z,1.50
2022-10-04T14:40:52.153Z,1.48
2022-10-04T14:46:08.845Z,1.30
2022-10-04T14:51:29.072Z,1.75
2022-10-04T14:56:59.015Z,1.20
2022-10-04T15:02:00.401Z,2.90
2022-10-04T15:07:22.971Z,1.20
2022-10-04T15:18:26.496Z,1.30
2022-10-04T15:23:40.194Z,1.30
2022-10-04T15:29:03.227Z,1.65
2022-10-04T15:34:26.213Z,1.30
2022-10-04T15:39:42.931Z,1.35
2022-10-04T15:45:06.065Z,1.45
2022-10-04T15:50:31.371Z,4.35
2022-10-04T15:55:35.828Z,1.70
2022-10-04T16:00:48.934Z,1.40
2022-10-04T16:06:20.743Z,1.75
2022-10-04T16:12:06.346Z,1.80
2022-10-04T16:17:09.619Z,1.23
2022-10-04T16:22:18.123Z,1.88
2022-10-04T16:27:24.705Z,1.15
2022-10-04T16:32:59.698Z,1.60
2022-10-04T16:38:14.222Z,1.17
2022-10-04T16:43:15.633Z,1.98
2022-10-04T16:48:35.873Z,1.30
2022-10-04T16:54:14.107Z,1.27
2022-10-04T16:59:15.756Z,1.50
2022-10-04T17:04:41.531Z,1.80
2022-10-04T17:10:06.143Z,1.92
2022-10-04T17:15:33.524Z,1.45
2022-10-04T17:20:40.952Z,1.70
2022-10-04T17:25:51.769Z,1.88
2022-10-04T17:31:02.942Z,2.75
2022-10-04T17:36:19.123Z,2.80
2022-10-04T17:41:35.566Z,3.50
2022-10-04T17:46:50.578Z,3.00
2022-10-04T17:52:15.438Z,3.00
2022-10-04T17:57:35.128Z,2.00
2022-10-04T18:03:02.158Z,2.55
2022-10-04T18:08:13.724Z,3.55
2022-10-04T18:13:39.427Z,1.85
2022-10-04T18:18:43.567Z,2.55
2022-10-04T18:23:54.261Z,2.30
2022-10-04T18:28:57.323Z,3.17
2022-10-04T18:34:16.392Z,2.10
2022-10-04T18:39:21.884Z,2.00
2022-10-04T18:44:44.343Z,2.22
2022-10-04T18:49:53.406Z,1.75
2022-10-04T18:55:18.279Z,2.13
2022-10-04T19:00:38.717Z,2.40
2022-10-04T19:05:51.463Z,2.70
2022-10-04T19:10:59.572Z,2.97
2022-10-04T19:16:29.065Z,2.22
2022-10-04T19:21:44.353Z,2.42
2022-10-04T19:26:56.853Z,2.05
2022-10-04T19:32:11.361Z,2.30
2022-10-04T19:37:31.065Z,2.25
2022-10-04T19:42:59.308Z,2.05
2022-10-04T19:48:11.766Z,2.22
2022-10-04T19:53:18.731Z,2.28
2022-10-04T19:58:24.067Z,2.30
2022-10-04T20:03:25.550Z,2.13
2022-10-04T20:08:58.021Z,2.00
2022-10-04T20:14:03.120Z,2.35
2022-10-04T20:19:17.815Z,2.58
2022-10-04T20:24:37.536Z,1.80
2022-10-04T20:29:38.876Z,2.20
2022-10-04T20:34:40.227Z,1.80
2022-10-04T20:39:41.830Z,2.40
2022-10-04T20:45:05.332Z,2.10
2022-10-04T20:50:40.473Z,1.67
2022-10-04T20:56:08.447Z,2.33
2022-10-04T21:01:35.604Z,2.20
2022-10-04T21:06:53.123Z,1.83
2022-10-04T21:11:56.381Z,1.90
2022-10-04T21:17:02.995Z,1.70
2022-10-04T21:22:05.834Z,2.00
2022-10-04T21:27:12.547Z,2.08
2022-10-04T21:32:13.968Z,2.50
2022-10-04T21:37:16.091Z,1.60
2022-10-04T21:42:18.053Z,1.65
2022-10-04T21:47:22.635Z,1.85
2022-10-04T21:52:24.037Z,1.55
2022-10-04T21:57:25.478Z,1.40
2022-10-04T22:02:26.850Z,1.70
2022-10-04T22:07:28.253Z,1.75
2022-10-04T22:12:29.638Z,1.50
2022-10-04T22:17:31.025Z,1.40
2022-10-04T22:22:35.327Z,2.00
2022-10-04T22:27:40.478Z,1.35
2022-10-04T22:32:41.986Z,1.17
2022-10-04T22:37:43.994Z,1.30
2022-10-04T22:42:48.739Z,1.30
2022-10-04T22:47:51.091Z,1.58
2022-10-04T22:52:52.484Z,1.33
2022-10-04T22:57:55.023Z,1.52
2022-10-04T23:02:56.563Z,1.50
2022-10-04T23:07:58.014Z,1.30
2022-10-04T23:12:59.445Z,1.30
2022-10-04T23:18:00.804Z,1.20
2022-10-04T23:23:02.445Z,1.30
2022-10-04T23:28:18.450Z,1.15
2022-10-04T23:33:21.673Z,1.33
2022-10-04T23:38:24.713Z,1.25
2022-10-04T23:43:26.789Z,1.30
2022-10-04T23:48:29.426Z,1.38
2022-10-04T23:58:36.630Z,0.85
